Time;durP1;ratioP1;P1;durP2;ratioP2;P2;SDS_P1;SDS_P2;PMS_P1;PMS_P2;Temp;Humidity;BMP_temperature;BMP_pressure;BME280_temperature;BME280_humidity;BME280_pressure;Samples;Min_cycle;Max_cycle;Signal;HPM_P1;HPM_P2
2023/05/04 00:00:15;;;;;;;6.70;3.13;;;;;;;5.87;56.40;100475.91;5092085;28;20131;-62
2023/05/04 00:02:41;;;;;;;6.85;2.92;;;;;;;5.87;56.38;100481.22;5074653;28;20457;-62
2023/05/04 00:05:07;;;;;;;6.60;3.45;;;;;;;5.78;56.16;100468.38;5092624;28;20047;-62
2023/05/04 00:07:33;;;;;;;8.85;3.17;;;;;;;5.83;56.37;100481.44;5091929;28;20047;-60
2023/05/04 00:10:00;;;;;;;6.72;3.30;;;;;;;5.79;56.09;100478.09;5092696;28;20340;-62
2023/05/04 00:12:26;;;;;;;5.22;2.70;;;;;;;5.77;55.38;100485.25;5078245;28;20040;-62
2023/05/04 00:14:51;;;;;;;6.68;2.97;;;;;;;5.73;56.13;100479.25;5096028;28;20047;-63
2023/05/04 00:17:17;;;;;;;7.20;2.53;;;;;;;5.70;55.79;100483.84;5078243;28;20024;-62
2023/05/04 00:19:44;;;;;;;7.68;3.00;;;;;;;5.69;55.84;100490.97;5096085;28;20024;-62
2023/05/04 00:22:10;;;;;;;5.35;2.58;;;;;;;5.68;55.36;100488.38;5095685;28;20038;-62
2023/05/04 00:24:36;;;;;;;6.53;2.60;;;;;;;5.65;55.65;100488.53;5095971;28;20020;-63
2023/05/04 00:27:01;;;;;;;10.52;3.22;;;;;;;5.59;56.02;100492.34;5095769;28;20082;-62
2023/05/04 00:29:27;;;;;;;7.97;2.88;;;;;;;5.59;56.11;100497.66;5095224;28;20028;-62
2023/05/04 00:31:52;;;;;;;8.55;3.00;;;;;;;5.56;56.69;100496.03;5095568;28;20046;-61
2023/05/04 00:34:18;;;;;;;9.65;2.85;;;;;;;5.53;56.46;100498.81;5095684;28;20062;-61
2023/05/04 00:36:45;;;;;;;6.43;2.45;;;;;;;5.50;56.73;100498.13;5095379;28;20032;-61
2023/05/04 00:39:10;;;;;;;5.82;2.70;;;;;;;5.46;56.52;100508.91;5095358;28;20097;-62
2023/05/04 00:41:36;;;;;;;5.13;3.08;;;;;;;5.44;56.75;100499.28;5095429;28;20407;-62
2023/05/04 00:44:03;;;;;;;7.38;2.75;;;;;;;5.41;56.93;100499.41;5095386;28;20414;-62
2023/05/04 00:46:30;;;;;;;4.40;2.70;;;;;;;5.37;57.05;100498.69;5095118;28;20042;-62
2023/05/04 00:48:58;;;;;;;7.20;2.70;;;;;;;5.31;56.96;100489.25;5095050;28;20118;-62
2023/05/04 00:51:24;;;;;;;7.43;3.22;;;;;;;5.33;57.35;100502.44;5094858;28;20032;-62
2023/05/04 00:53:52;;;;;;;5.72;2.75;;;;;;;5.29;57.20;100507.03;5094763;28;20454;-62
2023/05/04 00:56:21;;;;;;;8.60;2.97;;;;;;;5.29;57.39;100501.72;5095038;28;20035;-61
2023/05/04 00:58:46;;;;;;;8.20;2.85;;;;;;;5.22;57.58;100499.47;5076998;28;20031;-62
2023/05/04 01:01:12;;;;;;;6.57;2.88;;;;;;;5.21;58.00;100501.22;5094928;28;20039;-61
2023/05/04 01:03:37;;;;;;;9.00;2.90;;;;;;;5.20;58.30;100502.16;5094673;28;20039;-61
2023/05/04 01:06:18;;;;;;;7.93;3.38;;;;;;;5.04;57.83;100475.50;5094798;28;20453;-62
2023/05/04 01:08:59;;;;;;;4.18;2.90;;;;;;;5.14;57.44;100489.19;5094826;28;20431;-62
2023/05/04 01:11:35;;;;;;;4.35;2.70;;;;;;;5.18;57.70;100506.69;5094530;28;20540;-62
2023/05/04 01:14:02;;;;;;;7.32;3.22;;;;;;;5.07;57.84;100512.50;5094753;28;20105;-63
2023/05/04 01:16:28;;;;;;;6.82;3.35;;;;;;;5.02;57.31;100507.41;5094899;28;20123;-61
2023/05/04 01:18:53;;;;;;;9.23;2.85;;;;;;;5.00;57.95;100517.22;5094488;28;20119;-62
2023/05/04 01:21:19;;;;;;;7.13;3.03;;;;;;;4.94;57.37;100506.91;5094281;28;20051;-62
2023/05/04 01:23:45;;;;;;;5.50;2.97;;;;;;;4.94;57.65;100516.63;5094085;28;20024;-62
2023/05/04 01:26:22;;;;;;;8.93;3.17;;;;;;;4.77;57.79;100490.88;5094241;28;20028;-61
2023/05/04 01:28:56;;;;;;;8.10;3.22;;;;;;;4.95;57.88;100513.94;5094455;28;20028;-63
2023/05/04 01:31:23;;;;;;;6.93;3.33;;;;;;;4.88;58.15;100523.13;5094639;28;20024;-62
2023/05/04 01:33:51;;;;;;;4.85;3.17;;;;;;;4.87;58.41;100529.34;5094361;28;20116;-62
2023/05/04 01:36:19;;;;;;;6.85;3.60;;;;;;;4.66;59.03;100502.00;5093849;28;20032;-62
2023/05/04 01:38:52;;;;;;;7.72;2.67;;;;;;;4.80;58.57;100525.25;5094341;28;20067;-61
2023/05/04 01:41:17;;;;;;;5.85;2.78;;;;;;;4.80;58.50;100525.25;5094384;28;20036;-61
2023/05/04 01:43:43;;;;;;;7.10;3.28;;;;;;;4.80;58.82;100527.88;5093704;28;20354;-62
2023/05/04 01:46:09;;;;;;;6.70;3.35;;;;;;;4.78;59.26;100524.44;5093906;28;20032;-59
2023/05/04 01:48:34;;;;;;;7.82;3.33;;;;;;;4.78;59.01;100533.28;5076626;28;20378;-62
2023/05/04 01:51:00;;;;;;;6.90;3.58;;;;;;;4.76;59.47;100523.66;5094190;28;20039;-62
2023/05/04 01:53:25;;;;;;;12.60;3.50;;;;;;;4.77;59.27;100530.69;5076304;28;20035;-62
2023/05/04 01:55:51;;;;;;;4.63;3.03;;;;;;;4.74;59.38;100529.06;5094263;28;20119;-62
2023/05/04 01:58:18;;;;;;;7.22;4.00;;;;;;;4.67;59.96;100522.28;5094135;28;20107;-62
2023/05/04 02:00:45;;;;;;;7.70;3.92;;;;;;;4.77;59.99;100536.00;5094363;28;20028;-62
2023/05/04 02:03:10;;;;;;;7.85;3.10;;;;;;;4.76;59.22;100542.22;5093364;28;20350;-61
2023/05/04 02:05:36;;;;;;;11.35;3.72;;;;;;;4.77;59.90;100539.53;5093598;28;20028;-62
2023/05/04 02:08:01;;;;;;;8.52;3.30;;;;;;;4.82;60.22;100544.59;5093939;28;20115;-62
2023/05/04 02:10:27;;;;;;;7.88;4.00;;;;;;;4.82;59.72;100547.25;5093912;28;20036;-61
2023/05/04 02:12:53;;;;;;;9.50;3.97;;;;;;;4.85;59.95;100547.13;5093322;28;20024;-62
2023/05/04 02:15:19;;;;;;;5.80;3.67;;;;;;;4.86;60.01;100544.41;5093597;28;20150;-60
2023/05/04 02:17:45;;;;;;;11.73;3.53;;;;;;;4.92;60.60;100548.56;5075779;28;20020;-60
2023/05/04 02:20:11;;;;;;;8.13;3.83;;;;;;;4.95;60.63;100551.09;5093728;28;20024;-59
2023/05/04 02:22:38;;;;;;;9.35;3.78;;;;;;;4.99;60.19;100550.00;5076031;28;20028;-63
2023/05/04 02:25:04;;;;;;;8.15;3.45;;;;;;;4.98;60.17;100542.97;5093494;28;20024;-63
2023/05/04 02:27:30;;;;;;;7.65;3.45;;;;;;;5.00;59.74;100535.81;5093641;28;20514;-63
2023/05/04 02:29:58;;;;;;;5.25;3.65;;;;;;;5.12;60.08;100552.13;5093749;28;20040;-63
2023/05/04 02:32:25;;;;;;;5.30;3.47;;;;;;;5.14;60.66;100556.41;5093367;28;20063;-62
2023/05/04 02:34:51;;;;;;;9.43;3.50;;;;;;;5.21;60.05;100562.28;5092558;28;20031;-61
2023/05/04 02:37:18;;;;;;;6.70;3.70;;;;;;;5.25;59.89;100563.03;5093426;28;20374;-61
2023/05/04 02:39:43;;;;;;;7.72;4.00;;;;;;;5.30;59.82;100561.00;5093440;28;20028;-61
2023/05/04 02:42:09;;;;;;;7.97;3.55;;;;;;;5.35;59.52;100558.16;5075810;28;20028;-62
2023/05/04 02:44:35;;;;;;;9.25;4.05;;;;;;;5.39;59.73;100557.91;5093210;28;20105;-62
2023/05/04 02:47:01;;;;;;;8.98;3.75;;;;;;;5.46;59.71;100563.78;5093012;28;20027;-62
2023/05/04 02:49:26;;;;;;;7.80;4.10;;;;;;;5.49;59.04;100560.16;5092800;28;20036;-62
2023/05/04 02:51:52;;;;;;;8.27;3.67;;;;;;;5.56;59.04;100562.44;5093071;28;20362;-62
2023/05/04 02:54:17;;;;;;;5.55;3.65;;;;;;;5.65;59.02;100568.25;5092728;28;20435;-60
2023/05/04 02:56:43;;;;;;;13.25;3.75;;;;;;;5.69;58.79;100565.38;5092957;28;20427;-60
2023/05/04 02:59:08;;;;;;;12.70;3.95;;;;;;;5.78;58.43;100572.00;5093031;28;20027;-62
2023/05/04 03:01:34;;;;;;;9.82;4.00;;;;;;;5.85;58.34;100572.56;5093044;28;20462;-61
2023/05/04 03:03:59;;;;;;;11.73;4.38;;;;;;;5.93;57.84;100572.19;5092699;28;20485;-62
2023/05/04 03:06:25;;;;;;;10.48;4.10;;;;;;;6.00;57.91;100582.47;5092581;28;20059;-61
2023/05/04 03:08:51;;;;;;;15.18;4.30;;;;;;;6.09;57.74;100573.22;5092741;28;20119;-62
2023/05/04 03:11:16;;;;;;;10.00;4.20;;;;;;;6.20;57.55;100579.78;5092847;28;20110;-62
2023/05/04 03:13:42;;;;;;;8.63;4.53;;;;;;;6.27;56.92;100591.81;5092782;28;20119;-62
2023/05/04 03:16:07;;;;;;;12.45;4.30;;;;;;;6.40;56.98;100590.25;5092599;28;20467;-61
2023/05/04 03:18:33;;;;;;;8.80;4.03;;;;;;;6.50;56.39;100584.47;5092915;28;20039;-62
2023/05/04 03:20:58;;;;;;;10.98;3.83;;;;;;;6.64;56.18;100589.09;5092510;28;20356;-61
2023/05/04 03:23:24;;;;;;;8.65;4.03;;;;;;;6.71;55.56;100583.34;5092170;28;20027;-61
2023/05/04 03:25:50;;;;;;;9.38;3.70;;;;;;;6.66;55.13;100566.78;5074680;28;20039;-61
2023/05/04 03:28:15;;;;;;;12.10;4.35;;;;;;;6.94;54.50;100599.06;5092724;28;20043;-63
2023/05/04 03:30:41;;;;;;;13.20;4.63;;;;;;;7.06;54.31;100598.41;5074958;28;20035;-63
2023/05/04 03:33:06;;;;;;;6.68;4.20;;;;;;;7.10;54.04;100591.13;5092272;28;20032;-61
2023/05/04 03:35:32;;;;;;;12.27;4.00;;;;;;;7.27;53.45;100599.06;5092833;28;20504;-61
2023/05/04 03:37:58;;;;;;;9.88;3.83;;;;;;;7.49;52.58;100605.88;5092674;28;20142;-61
2023/05/04 03:40:23;;;;;;;12.95;3.78;;;;;;;7.93;51.69;100603.44;5092106;28;20111;-62
2023/05/04 03:42:51;;;;;;;8.80;4.05;;;;;;;9.18;49.21;100590.72;5092348;28;20461;-61
2023/05/04 03:45:16;;;;;;;13.65;3.80;;;;;;;11.09;44.33;100600.53;5093710;28;20058;-61
2023/05/04 03:47:42;;;;;;;11.20;3.70;;;;;;;12.89;39.92;100590.88;5096400;28;20450;-60
2023/05/04 03:50:08;;;;;;;9.85;4.03;;;;;;;14.59;36.72;100598.78;5096147;28;20108;-62
2023/05/04 03:52:34;;;;;;;9.18;3.78;;;;;;;16.00;33.69;100589.16;5096328;28;20032;-63
2023/05/04 03:55:00;;;;;;;10.82;3.97;;;;;;;17.31;31.89;100590.56;5096480;28;20044;-62
2023/05/04 03:57:25;;;;;;;8.00;3.90;;;;;;;18.41;29.45;100587.88;5096087;28;20032;-63
2023/05/04 03:59:51;;;;;;;8.40;3.40;;;;;;;19.50;27.85;100587.53;5095874;28;20089;-61
2023/05/04 04:02:17;;;;;;;15.07;4.22;;;;;;;20.53;26.66;100603.75;5095814;28;20063;-61
2023/05/04 04:04:42;;;;;;;10.75;3.70;;;;;;;21.27;24.92;100600.06;5096497;28;20039;-63
2023/05/04 04:07:08;;;;;;;8.63;3.80;;;;;;;22.13;23.32;100600.16;5095766;28;20123;-62
2023/05/04 04:09:33;;;;;;;9.52;3.90;;;;;;;22.81;22.47;100602.22;5077709;28;20051;-60
2023/05/04 04:11:59;;;;;;;11.55;3.28;;;;;;;23.46;21.76;100585.28;5095901;28;20031;-61
2023/05/04 04:14:25;;;;;;;12.90;3.97;;;;;;;24.15;20.76;100605.91;5096179;28;20026;-62
2023/05/04 04:16:51;;;;;;;10.02;3.75;;;;;;;24.69;19.70;100609.13;5095678;28;20075;-63
2023/05/04 04:19:16;;;;;;;10.07;3.80;;;;;;;25.31;19.28;100614.00;5096078;28;20052;-61
2023/05/04 04:21:42;;;;;;;9.38;3.70;;;;;;;25.77;18.87;100605.16;5095497;28;20039;-61
2023/05/04 04:24:07;;;;;;;6.68;3.88;;;;;;;26.20;18.36;100605.94;5095731;28;20032;-61
2023/05/04 04:26:33;;;;;;;13.10;4.00;;;;;;;26.52;17.97;100614.41;5095704;28;20450;-61
2023/05/04 04:28:58;;;;;;;11.05;4.43;;;;;;;26.84;17.42;100608.28;5095254;28;20028;-61
2023/05/04 04:31:24;;;;;;;9.55;4.10;;;;;;;27.33;16.77;100615.19;5095213;28;20032;-62
2023/05/04 04:33:50;;;;;;;13.85;4.30;;;;;;;27.97;16.60;100613.66;5077807;28;20081;-62
2023/05/04 04:36:15;;;;;;;13.73;4.78;;;;;;;28.63;15.79;100612.41;5095553;28;20064;-61
2023/05/04 04:38:42;;;;;;;12.80;4.20;;;;;;;29.30;14.90;100613.69;5094863;28;20038;-62
2023/05/04 04:41:07;;;;;;;12.65;4.05;;;;;;;30.00;14.14;100619.81;5094933;28;20031;-61
2023/05/04 04:43:33;;;;;;;11.98;3.70;;;;;;;30.60;13.70;100611.72;5094694;28;20114;-62
2023/05/04 04:45:58;;;;;;;11.27;3.70;;;;;;;30.87;13.38;100614.06;5094932;28;20024;-61
2023/05/04 04:48:24;;;;;;;9.50;3.25;;;;;;;31.03;13.12;100590.38;5094979;28;20028;-62
2023/05/04 04:50:51;;;;;;;10.07;3.33;;;;;;;31.48;12.42;100616.53;5077199;28;20108;-62
2023/05/04 04:53:17;;;;;;;11.07;3.50;;;;;;;31.87;12.25;100605.75;5095163;28;20432;-62
2023/05/04 04:55:43;;;;;;;9.18;3.50;;;;;;;32.43;11.69;100609.78;5094868;28;20096;-64
2023/05/04 04:58:08;;;;;;;8.18;3.17;;;;;;;32.72;11.88;100605.00;5093818;28;20139;-62
2023/05/04 05:00:34;;;;;;;7.07;2.25;;;;;;;32.88;10.61;100616.38;5094769;28;20307;-63
2023/05/04 05:03:01;;;;;;;5.85;2.33;;;;;;;32.92;11.18;100623.94;5094492;28;20043;-62
2023/05/04 05:05:27;;;;;;;4.18;2.65;;;;;;;32.87;10.76;100614.66;5094775;28;20028;-61
2023/05/04 05:07:53;;;;;;;7.13;2.45;;;;;;;32.97;10.39;100620.38;5076861;28;20113;-62
2023/05/04 05:10:19;;;;;;;3.08;2.28;;;;;;;33.33;10.49;100620.88;5094825;28;20119;-62
2023/05/04 05:12:45;;;;;;;3.63;2.30;;;;;;;33.18;9.80;100620.66;5077393;28;20439;-62
2023/05/04 05:15:11;;;;;;;6.13;2.17;;;;;;;33.00;10.07;100619.84;5094790;28;20036;-62
2023/05/04 05:17:38;;;;;;;5.30;2.78;;;;;;;33.38;10.10;100628.41;5094951;28;20370;-62
2023/05/04 05:20:09;;;;;;;5.38;2.85;;;;;;;34.12;9.57;100636.53;5094569;28;20061;-62
2023/05/04 05:22:36;;;;;;;4.03;2.22;;;;;;;34.74;9.07;100631.56;5094655;28;20458;-62
2023/05/04 05:25:03;;;;;;;7.60;2.58;;;;;;;35.54;8.64;100616.78;5094483;28;20355;-63
2023/05/04 05:27:29;;;;;;;7.05;2.60;;;;;;;36.17;8.08;100623.34;5094352;28;20103;-64
2023/05/04 05:29:56;;;;;;;6.80;2.25;;;;;;;36.84;7.85;100608.56;5094817;28;20115;-63
2023/05/04 05:32:21;;;;;;;3.85;2.08;;;;;;;37.47;7.61;100626.84;5094607;28;20110;-63
2023/05/04 05:34:47;;;;;;;5.15;2.33;;;;;;;38.04;7.00;100623.78;5094616;28;20074;-63
2023/05/04 05:37:12;;;;;;;5.55;2.20;;;;;;;38.26;7.13;100620.56;5076587;28;20031;-63
2023/05/04 05:39:38;;;;;;;4.10;1.90;;;;;;;38.82;6.33;100624.00;5094571;28;20494;-62
2023/05/04 05:42:04;;;;;;;2.88;1.95;;;;;;;39.32;6.08;100622.91;5094346;28;20028;-62
2023/05/04 05:44:30;;;;;;;1.58;1.13;;;;;;;39.50;5.63;100624.09;5094129;28;20114;-62
2023/05/04 05:46:55;;;;;;;2.55;1.27;;;;;;;39.65;5.63;100623.06;5094233;28;20112;-63
2023/05/04 05:49:21;;;;;;;2.50;1.50;;;;;;;40.14;5.53;100620.13;5094606;28;20031;-61
2023/05/04 05:51:46;;;;;;;1.58;1.15;;;;;;;40.51;5.30;100597.94;5094129;28;20365;-62
2023/05/04 05:54:12;;;;;;;1.50;1.10;;;;;;;40.61;5.31;100611.81;5093750;28;20451;-62
2023/05/04 05:56:38;;;;;;;2.35;1.20;;;;;;;40.71;4.80;100627.63;5093671;28;20054;-62
2023/05/04 05:59:04;;;;;;;4.32;1.42;;;;;;;40.47;5.44;100621.00;5094072;28;20114;-62
2023/05/04 06:01:29;;;;;;;3.90;1.90;;;;;;;39.99;5.12;100624.00;5094128;28;20028;-61
2023/05/04 06:03:55;;;;;;;2.15;1.52;;;;;;;40.18;5.53;100615.59;5093706;28;20035;-61
2023/05/04 06:06:20;;;;;;;2.17;1.55;;;;;;;40.70;4.82;100626.78;5093552;28;20139;-62
2023/05/04 06:08:46;;;;;;;3.47;1.92;;;;;;;41.22;5.18;100620.22;5093622;28;20036;-63
2023/05/04 06:11:11;;;;;;;3.08;1.98;;;;;;;41.64;4.78;100616.56;5093832;28;20061;-63
2023/05/04 06:13:37;;;;;;;5.00;2.40;;;;;;;42.27;4.52;100619.63;5093512;28;20354;-62
2023/05/04 06:16:03;;;;;;;6.28;2.03;;;;;;;42.81;3.88;100615.97;5093416;28;20032;-62
2023/05/04 06:18:28;;;;;;;6.07;2.00;;;;;;;43.34;4.22;100619.03;5093590;28;20473;-64
2023/05/04 06:20:58;;;;;;;4.47;1.60;;;;;;;43.98;3.79;100624.09;5093528;28;20462;-63
2023/05/04 06:23:25;;;;;;;3.20;1.83;;;;;;;43.85;3.76;100609.00;5093278;28;20446;-61
2023/05/04 06:25:50;;;;;;;6.47;1.73;;;;;;;44.09;3.51;100604.03;5093228;28;20498;-61
2023/05/04 06:28:22;;;;;;;3.75;1.90;;;;;;;44.11;3.50;100602.56;5093260;28;20116;-61
2023/05/04 06:30:48;;;;;;;3.38;1.55;;;;;;;44.13;3.76;100608.72;5093520;28;20059;-66
2023/05/04 06:33:13;;;;;;;5.97;1.90;;;;;;;44.47;3.46;100596.84;5092817;28;20051;-63
2023/05/04 06:35:40;;;;;;;5.57;1.50;;;;;;;45.05;3.29;100604.97;5093122;28;20032;-62
2023/05/04 06:38:05;;;;;;;2.10;1.23;;;;;;;45.22;2.73;100595.56;5093056;28;20093;-63
2023/05/04 06:40:31;;;;;;;2.15;1.00;;;;;;;45.52;2.87;100596.41;5093015;28;20124;-63
2023/05/04 06:42:56;;;;;;;2.88;1.05;;;;;;;45.81;2.14;100597.53;5093157;28;20447;-63
2023/05/04 06:45:22;;;;;;;4.35;1.25;;;;;;;46.07;2.29;100581.50;5093319;28;20032;-63
2023/05/04 06:47:47;;;;;;;3.13;1.20;;;;;;;46.08;2.00;100597.28;5093102;28;20036;-62
2023/05/04 06:50:13;;;;;;;5.25;1.10;;;;;;;45.71;2.15;100595.94;5092967;28;20100;-63
2023/05/04 06:52:42;;;;;;;9.82;1.90;;;;;;;45.64;2.29;100597.66;5092835;28;20090;-62
2023/05/04 06:55:07;;;;;;;2.55;1.38;;;;;;;45.77;2.23;100593.75;5092898;28;20028;-62
2023/05/04 06:57:33;;;;;;;5.95;1.40;;;;;;;45.65;2.58;100585.19;5092863;28;20032;-62
2023/05/04 06:59:58;;;;;;;4.18;1.40;;;;;;;45.84;2.08;100571.41;5092807;28;20026;-61
2023/05/04 07:02:24;;;;;;;5.13;1.10;;;;;;;45.80;2.03;100590.22;5093121;28;20039;-63
2023/05/04 07:04:51;;;;;;;1.02;1.00;;;;;;;45.21;2.27;100594.75;5092860;28;20032;-62
2023/05/04 07:07:17;;;;;;;1.55;1.10;;;;;;;44.34;2.28;100582.59;5092397;28;20048;-62
2023/05/04 07:09:43;;;;;;;1.15;1.10;;;;;;;43.82;2.50;100572.19;5092832;28;20032;-62
2023/05/04 07:12:08;;;;;;;1.35;1.00;;;;;;;43.48;2.63;100579.44;5092448;28;20043;-62
2023/05/04 07:14:34;;;;;;;2.35;1.00;;;;;;;43.29;2.96;100580.59;5092400;28;20435;-62
2023/05/04 07:17:00;;;;;;;5.18;1.08;;;;;;;43.44;2.63;100566.00;5092767;28;20096;-61
2023/05/04 07:19:26;;;;;;;3.97;1.13;;;;;;;43.92;2.61;100590.78;5092921;28;20126;-63
2023/05/04 07:21:51;;;;;;;3.47;1.10;;;;;;;44.79;2.10;100572.00;5096436;28;20107;-62
2023/05/04 07:24:17;;;;;;;2.95;1.27;;;;;;;44.56;2.33;100566.63;5096821;28;20623;-62
2023/05/04 07:26:42;;;;;;;2.58;1.15;;;;;;;44.57;2.50;100579.56;5096848;28;20438;-64
2023/05/04 07:29:08;;;;;;;3.30;1.30;;;;;;;44.74;2.43;100565.38;5096478;28;20032;-62
2023/05/04 07:31:35;;;;;;;3.30;1.30;;;;;;;44.55;2.55;100568.63;5078678;28;20026;-62
2023/05/04 07:34:00;;;;;;;1.63;1.10;;;;;;;44.60;2.38;100570.41;5096594;28;20050;-62
2023/05/04 07:36:26;;;;;;;2.83;1.10;;;;;;;44.99;2.04;100565.63;5097101;28;20450;-64
2023/05/04 07:38:53;;;;;;;5.57;1.30;;;;;;;45.38;2.30;100565.56;5096597;28;20028;-62
2023/05/04 07:41:19;;;;;;;6.28;1.42;;;;;;;45.96;2.07;100562.13;5096318;28;20180;-62
2023/05/04 07:43:45;;;;;;;2.72;1.30;;;;;;;46.00;1.95;100565.06;5096590;28;20106;-61
2023/05/04 07:46:11;;;;;;;1.50;1.40;;;;;;;46.00;1.91;100560.25;5096741;28;20032;-61
2023/05/04 07:48:37;;;;;;;3.28;1.63;;;;;;;45.63;1.76;100547.94;5096268;28;20066;-62
2023/05/04 07:51:02;;;;;;;4.50;1.30;;;;;;;44.75;2.22;100557.75;5096049;28;20028;-63
2023/05/04 07:53:28;;;;;;;4.47;1.30;;;;;;;43.44;2.82;100553.91;5096555;28;20443;-61
2023/05/04 07:55:56;;;;;;;1.83;1.10;;;;;;;42.42;2.46;100526.34;5095934;28;20107;-62
2023/05/04 07:58:22;;;;;;;2.17;1.42;;;;;;;41.98;2.75;100523.25;5096290;28;20028;-61
2023/05/04 08:00:48;;;;;;;1.35;1.17;;;;;;;41.64;2.95;100547.16;5095927;28;20027;-62
2023/05/04 08:03:14;;;;;;;4.53;1.27;;;;;;;41.27;3.12;100544.28;5096102;28;20096;-63
2023/05/04 08:05:40;;;;;;;7.88;1.55;;;;;;;40.96;3.40;100547.72;5096206;28;20028;-63
2023/05/04 08:08:07;;;;;;;1.95;1.23;;;;;;;40.06;3.84;100540.38;5096153;28;20474;-62
2023/05/04 08:10:36;;;;;;;2.00;1.15;;;;;;;37.89;4.58;100543.66;5095789;28;20039;-62
2023/05/04 08:13:02;;;;;;;2.33;1.40;;;;;;;34.08;6.02;100530.69;5095873;28;20482;-61
2023/05/04 08:15:28;;;;;;;3.85;1.30;;;;;;;30.75;8.07;100534.75;5096130;28;20111;-62
2023/05/04 08:17:53;;;;;;;5.65;1.60;;;;;;;28.08;9.69;100539.50;5095994;28;20430;-61
2023/05/04 08:20:20;;;;;;;1.92;1.40;;;;;;;26.13;10.78;100533.69;5095811;28;20470;-63
2023/05/04 08:22:46;;;;;;;4.53;1.60;;;;;;;24.56;12.18;100535.06;5095637;28;20082;-62
2023/05/04 08:25:11;;;;;;;3.38;1.30;;;;;;;23.30;13.56;100534.44;5096020;28;20115;-63
2023/05/04 08:27:38;;;;;;;3.90;1.48;;;;;;;22.38;14.17;100531.78;5095483;28;20190;-62
2023/05/04 08:30:04;;;;;;;5.88;1.30;;;;;;;21.66;14.70;100531.13;5095286;28;20049;-62
2023/05/04 08:32:31;;;;;;;2.75;1.00;;;;;;;20.95;15.01;100526.47;5094248;28;20031;-63
2023/05/04 08:34:56;;;;;;;4.13;1.42;;;;;;;20.31;15.70;100519.94;5095482;28;20032;-62
2023/05/04 08:37:22;;;;;;;2.05;1.33;;;;;;;19.94;16.31;100524.03;5095323;28;20040;-63
2023/05/04 08:39:48;;;;;;;3.25;1.10;;;;;;;19.59;17.25;100521.38;5095473;28;20035;-62
2023/05/04 08:42:25;;;;;;;1.85;1.17;;;;;;;19.57;16.90;100525.25;5095559;28;20122;-62
2023/05/04 08:44:51;;;;;;;2.75;1.08;;;;;;;19.07;17.18;100512.38;5095282;28;20046;-62
2023/05/04 08:47:16;;;;;;;3.30;1.00;;;;;;;18.80;17.51;100511.50;5095319;28;20032;-63
2023/05/04 08:49:43;;;;;;;3.08;1.30;;;;;;;18.42;17.45;100491.97;5095236;28;20343;-62
2023/05/04 08:52:09;;;;;;;5.78;1.20;;;;;;;18.45;17.92;100518.75;5077349;28;20032;-63
2023/05/04 08:54:36;;;;;;;2.95;1.10;;;;;;;18.17;18.28;100505.34;5095208;28;20028;-62
2023/05/04 08:57:03;;;;;;;3.78;1.30;;;;;;;18.17;19.28;100527.03;5095340;28;20063;-61
2023/05/04 08:59:31;;;;;;;5.30;1.48;;;;;;;18.00;18.83;100531.44;5095174;28;20036;-62
2023/05/04 09:01:58;;;;;;;2.35;1.20;;;;;;;17.56;19.02;100510.50;5095057;28;20082;-64
2023/05/04 09:04:24;;;;;;;6.75;1.55;;;;;;;17.18;19.62;100509.72;5095042;28;20028;-63
2023/05/04 09:06:51;;;;;;;3.15;1.17;;;;;;;17.00;20.48;100512.34;5076688;28;20040;-63
2023/05/04 09:09:16;;;;;;;3.10;1.35;;;;;;;17.04;20.61;100520.03;5094717;28;20028;-62
2023/05/04 09:11:43;;;;;;;1.80;1.00;;;;;;;17.03;19.51;100512.09;5094896;28;20477;-62
2023/05/04 09:14:08;;;;;;;2.63;1.13;;;;;;;16.95;19.45;100510.09;5094621;28;20048;-62
2023/05/04 09:16:37;;;;;;;5.15;1.58;;;;;;;17.02;20.41;100513.09;5094870;28;20463;-64
2023/05/04 09:19:14;;;;;;;3.03;1.50;;;;;;;16.99;20.38;100505.25;5094818;28;20060;-63
2023/05/04 09:21:40;;;;;;;3.30;1.70;;;;;;;17.04;20.53;100498.41;5095069;28;20104;-63
2023/05/04 09:24:06;;;;;;;4.95;1.63;;;;;;;16.68;20.74;100441.47;5094909;28;20119;-63
2023/05/04 09:26:32;;;;;;;2.25;1.00;;;;;;;16.93;20.36;100504.81;5094788;28;20221;-63
2023/05/04 09:29:12;;;;;;;5.15;1.45;;;;;;;16.98;20.35;100501.72;5094807;28;20378;-63
2023/05/04 09:31:57;;;;;;;5.38;1.60;;;;;;;17.11;20.31;100508.59;5094604;28;20035;-64
2023/05/04 09:34:22;;;;;;;7.70;1.45;;;;;;;17.16;19.76;100506.34;5094377;28;20111;-62
2023/05/04 09:37:06;;;;;;;6.60;1.30;;;;;;;17.40;19.25;100508.47;5094314;28;20031;-62
2023/05/04 09:39:31;;;;;;;3.53;1.20;;;;;;;17.43;19.25;100496.50;5094661;28;20454;-63
2023/05/04 09:41:57;;;;;;;3.47;1.25;;;;;;;17.36;19.72;100502.53;5094549;28;20024;-62
2023/05/04 09:44:24;;;;;;;4.20;1.30;;;;;;;17.23;20.40;100502.00;5093886;28;20103;-63
2023/05/04 09:46:54;;;;;;;4.95;1.20;;;;;;;17.37;20.38;100503.34;5094430;28;20036;-63
2023/05/04 09:49:33;;;;;;;3.38;1.50;;;;;;;17.52;18.86;100494.72;5076427;28;20028;-61
2023/05/04 09:52:03;;;;;;;2.30;1.20;;;;;;;17.34;19.55;100488.25;5094288;28;20035;-64
2023/05/04 09:54:33;;;;;;;3.25;1.20;;;;;;;17.33;19.04;100485.72;5093860;28;20032;-63
2023/05/04 09:57:21;;;;;;;5.00;1.60;;;;;;;17.65;19.03;100473.53;5093838;28;20399;-62
2023/05/04 09:59:47;;;;;;;3.45;1.92;;;;;;;17.82;19.03;100476.41;5076043;28;20032;-62
2023/05/04 10:02:13;;;;;;;9.35;1.75;;;;;;;18.05;19.26;100477.66;5094090;28;20064;-62
2023/05/04 10:04:39;;;;;;;6.57;1.90;;;;;;;18.19;18.83;100473.50;5093924;28;20032;-62
2023/05/04 10:07:05;;;;;;;3.75;1.30;;;;;;;18.26;17.91;100473.75;5093893;28;20040;-63
2023/05/04 10:09:32;;;;;;;3.95;1.33;;;;;;;18.20;17.81;100469.78;5093988;28;20071;-63
2023/05/04 10:11:59;;;;;;;2.83;1.40;;;;;;;18.06;17.58;100462.22;5093793;28;20144;-64
2023/05/04 10:14:26;;;;;;;4.43;1.17;;;;;;;17.99;17.95;100470.13;5093379;28;20027;-63
2023/05/04 10:16:54;;;;;;;6.53;1.20;;;;;;;17.96;18.24;100469.56;5093494;28;20458;-63
2023/05/04 10:19:28;;;;;;;4.38;1.27;;;;;;;17.81;18.11;100462.00;5093722;28;20032;-62
2023/05/04 10:22:03;;;;;;;5.90;1.30;;;;;;;17.80;18.29;100460.28;5093765;28;20109;-62
2023/05/04 10:24:32;;;;;;;2.30;1.27;;;;;;;17.73;18.77;100460.06;5075704;28;20428;-63
2023/05/04 10:27:03;;;;;;;2.55;1.40;;;;;;;17.69;18.49;100465.94;5093376;28;20530;-63
2023/05/04 10:29:32;;;;;;;2.28;0.90;;;;;;;17.56;19.13;100453.63;5075819;28;20028;-62
2023/05/04 10:31:59;;;;;;;3.60;1.00;;;;;;;17.53;19.73;100458.53;5093289;28;20032;-62
2023/05/04 10:34:30;;;;;;;2.35;1.27;;;;;;;17.57;19.53;100454.50;5075516;28;20032;-63
2023/05/04 10:36:57;;;;;;;4.82;1.23;;;;;;;17.66;19.07;100464.41;5093363;28;20115;-61
2023/05/04 10:39:26;;;;;;;1.35;1.15;;;;;;;17.71;18.58;100461.22;5093200;28;20332;-64
2023/05/04 10:42:06;;;;;;;4.65;1.38;;;;;;;17.78;18.57;100467.72;5093085;28;20063;-62
2023/05/04 10:44:47;;;;;;;5.65;1.10;;;;;;;17.64;18.77;100451.03;5093208;28;20093;-62
2023/05/04 10:47:13;;;;;;;3.47;1.02;;;;;;;17.66;17.87;100450.84;5093276;28;20359;-63
2023/05/04 10:49:39;;;;;;;2.40;1.10;;;;;;;17.69;18.32;100452.41;5093333;28;20043;-62
2023/05/04 10:52:08;;;;;;;2.13;1.08;;;;;;;17.75;18.20;100449.94;5093275;28;20115;-63
2023/05/04 10:54:38;;;;;;;3.40;1.33;;;;;;;17.75;18.03;100452.66;5092315;28;20035;-62
2023/05/04 10:57:09;;;;;;;1.77;1.10;;;;;;;17.72;18.10;100446.69;5092727;28;20081;-61
2023/05/04 10:59:35;;;;;;;2.88;1.10;;;;;;;17.72;18.66;100442.09;5093020;28;20409;-64
2023/05/04 11:02:02;;;;;;;5.35;1.15;;;;;;;17.86;18.18;100437.16;5092782;28;20149;-63
2023/05/04 11:04:28;;;;;;;2.25;1.10;;;;;;;17.89;18.54;100437.69;5092849;28;20028;-63
2023/05/04 11:07:05;;;;;;;2.72;1.08;;;;;;;17.81;18.17;100443.03;5092810;28;20048;-63
2023/05/04 11:09:40;;;;;;;2.88;1.10;;;;;;;17.57;18.60;100439.09;5093037;28;20500;-64
2023/05/04 11:12:09;;;;;;;1.90;1.23;;;;;;;17.19;18.78;100431.09;5092989;28;20024;-62
2023/05/04 11:14:40;;;;;;;5.10;0.80;;;;;;;17.07;19.05;100429.63;5092795;28;20042;-62
2023/05/04 11:17:10;;;;;;;3.40;1.30;;;;;;;17.13;18.56;100433.59;5093117;28;20047;-62
2023/05/04 11:19:49;;;;;;;1.95;1.10;;;;;;;17.30;18.89;100435.44;5092924;28;20059;-62
2023/05/04 11:22:19;;;;;;;3.65;1.30;;;;;;;17.33;18.71;100428.88;5092673;28;20051;-62
2023/05/04 11:24:47;;;;;;;1.73;1.17;;;;;;;17.34;19.01;100428.72;5092985;28;20024;-63
2023/05/04 11:27:27;;;;;;;2.92;1.42;;;;;;;17.50;18.80;100419.94;5092939;28;20156;-62